Time;durP1;ratioP1;P1;durP2;ratioP2;P2;SDS_P1;SDS_P2;PMS_P1;PMS_P2;Temp;Humidity;BMP_temperature;BMP_pressure;BME280_temperature;BME280_humidity;BME280_pressure;Samples;Min_cycle;Max_cycle;Signal;HPM_P1;HPM_P2
2022/01/04 00:00:14;;;;;;;37.00;29.17;;;;;;;;;;5077481;28;20050;-80
2022/01/04 00:02:40;;;;;;;35.65;26.63;;;;;;;;;;5077397;28;20086;-81
2022/01/04 00:05:09;;;;;;;38.85;28.65;;;;;;;;;;5077247;28;20032;-80
2022/01/04 00:07:36;;;;;;;55.22;38.45;;;;;;;;;;5077087;28;20090;-80
2022/01/04 00:10:02;;;;;;;59.85;40.33;;;;;;;;;;5077265;28;20032;-82
2022/01/04 00:15:13;;;;;;;39.22;26.88;;;;;;;;;;5075563;28;20039;-79
2022/01/04 00:17:39;;;;;;;34.22;25.88;;;;;;;;;;5076476;28;20024;-79
2022/01/04 00:20:06;;;;;;;34.92;26.75;;;;;;;;;;5075938;28;20447;-77
2022/01/04 00:22:32;;;;;;;36.58;27.38;;;;;;;;;;5076768;28;20461;-84
2022/01/04 00:24:59;;;;;;;40.72;30.67;;;;;;;;;;5076636;28;20048;-81
2022/01/04 00:27:25;;;;;;;49.30;34.55;;;;;;;;;;5076902;28;20080;-80
2022/01/04 00:29:52;;;;;;;41.92;32.22;;;;;;;;;;5075401;28;20489;-81
2022/01/04 00:32:18;;;;;;;41.28;30.30;;;;;;;;;;5076665;28;20027;-77
2022/01/04 00:34:44;;;;;;;42.08;32.83;;;;;;;;;;5075402;28;20020;-82
2022/01/04 00:37:13;;;;;;;46.10;32.45;;;;;;;;;;5076476;28;20107;-77
2022/01/04 00:39:42;;;;;;;47.78;35.13;;;;;;;;;;5076502;28;20025;-78
2022/01/04 00:42:08;;;;;;;37.25;27.30;;;;;;;;;;5076620;28;20032;-81
2022/01/04 00:44:34;;;;;;;38.38;29.17;;;;;;;;;;5076526;28;20050;-78
2022/01/04 00:47:00;;;;;;;36.83;27.55;;;;;;;;;;5076376;28;20028;-76
2022/01/04 00:49:26;;;;;;;37.10;27.92;;;;;;;;;;5076393;28;20035;-78
2022/01/04 00:51:54;;;;;;;36.80;26.83;;;;;;;;;;5076498;28;20050;-80
2022/01/04 00:54:21;;;;;;;56.63;35.97;;;;;;;;;;5076220;28;20020;-78
2022/01/04 00:56:48;;;;;;;74.00;44.40;;;;;;;;;;5076297;28;20454;-82
2022/01/04 00:59:14;;;;;;;117.60;61.53;;;;;;;;;;5076095;28;20021;-78
2022/01/04 01:01:41;;;;;;;72.35;48.30;;;;;;;;;;5076174;28;20472;-80
2022/01/04 01:04:07;;;;;;;57.33;39.40;;;;;;;;;;5076314;28;20031;-79
2022/01/04 01:06:36;;;;;;;58.53;39.42;;;;;;;;;;5075995;28;20119;-81
2022/01/04 01:09:03;;;;;;;81.00;52.22;;;;;;;;;;5074777;28;20369;-77
2022/01/04 01:11:29;;;;;;;50.92;34.58;;;;;;;;;;5075941;28;20032;-80
2022/01/04 01:13:56;;;;;;;65.43;41.17;;;;;;;;;;5075987;28;20468;-80
2022/01/04 01:16:22;;;;;;;55.78;36.25;;;;;;;;;;5075892;28;20480;-80
2022/01/04 01:18:48;;;;;;;47.90;30.45;;;;;;;;;;5075769;28;20538;-78
2022/01/04 01:21:16;;;;;;;42.53;30.77;;;;;;;;;;5075766;28;20040;-78
2022/01/04 01:23:43;;;;;;;49.70;33.40;;;;;;;;;;5075874;28;20035;-77
2022/01/04 01:26:09;;;;;;;41.15;28.77;;;;;;;;;;5075423;28;20123;-83
2022/01/04 01:28:36;;;;;;;39.83;26.83;;;;;;;;;;5075690;28;20028;-82
2022/01/04 01:31:03;;;;;;;36.35;24.75;;;;;;;;;;5075509;28;20048;-78
2022/01/04 01:33:29;;;;;;;33.15;24.35;;;;;;;;;;5075588;28;20044;-84
2022/01/04 01:35:56;;;;;;;39.75;29.30;;;;;;;;;;5075667;28;20021;-77
2022/01/04 01:38:23;;;;;;;39.65;28.70;;;;;;;;;;5074242;28;20455;-82
2022/01/04 01:40:49;;;;;;;36.67;27.05;;;;;;;;;;5075476;28;20029;-83
2022/01/04 01:43:16;;;;;;;37.28;25.33;;;;;;;;;;5075293;28;20039;-79
2022/01/04 01:45:42;;;;;;;34.20;24.75;;;;;;;;;;5075383;28;20037;-81
2022/01/04 01:48:08;;;;;;;32.65;23.52;;;;;;;;;;5075329;28;20024;-77
2022/01/04 01:50:35;;;;;;;31.00;22.90;;;;;;;;;;5075316;28;20503;-80
2022/01/04 01:53:01;;;;;;;35.30;23.60;;;;;;;;;;5075230;28;20036;-75
2022/01/04 01:55:27;;;;;;;35.15;26.75;;;;;;;;;;5075205;28;20028;-81
2022/01/04 01:57:54;;;;;;;41.47;30.20;;;;;;;;;;5073873;28;20028;-77
2022/01/04 02:00:22;;;;;;;47.83;33.67;;;;;;;;;;5075052;28;20021;-78
2022/01/04 02:02:48;;;;;;;55.22;37.92;;;;;;;;;;5073819;28;20090;-80
2022/01/04 02:05:14;;;;;;;54.85;35.30;;;;;;;;;;5074885;28;20017;-81
2022/01/04 02:07:42;;;;;;;47.40;33.75;;;;;;;;;;5074951;28;20024;-78
2022/01/04 02:10:08;;;;;;;49.55;33.40;;;;;;;;;;5074864;28;20021;-77
2022/01/04 02:12:39;;;;;;;69.80;43.38;;;;;;;;;;5074844;28;20028;-79
2022/01/04 02:15:07;;;;;;;57.63;38.95;;;;;;;;;;5074890;28;20439;-81
2022/01/04 02:17:33;;;;;;;46.40;32.65;;;;;;;;;;5074730;28;20024;-78
2022/01/04 02:20:00;;;;;;;47.65;34.22;;;;;;;;;;5074422;28;20032;-78
2022/01/04 02:22:27;;;;;;;43.17;29.77;;;;;;;;;;5075822;28;20028;-78
2022/01/04 02:24:53;;;;;;;43.33;28.77;;;;;;;;;;5076426;28;20099;-78
2022/01/04 02:27:19;;;;;;;37.20;26.35;;;;;;;;;;5076225;28;20036;-79
2022/01/04 02:29:46;;;;;;;36.75;28.25;;;;;;;;;;5076036;28;20020;-82
2022/01/04 02:32:13;;;;;;;38.58;28.77;;;;;;;;;;5074498;28;20024;-81
2022/01/04 02:34:39;;;;;;;50.13;33.20;;;;;;;;;;5074394;28;20028;-81
2022/01/04 02:37:06;;;;;;;91.15;50.20;;;;;;;;;;5074285;28;20024;-81
2022/01/04 02:39:35;;;;;;;70.18;42.30;;;;;;;;;;5074284;28;20032;-78
2022/01/04 02:42:01;;;;;;;69.32;43.15;;;;;;;;;;5074158;28;20495;-79
2022/01/04 02:44:30;;;;;;;65.03;39.67;;;;;;;;;;5074205;28;20544;-76
2022/01/04 02:46:56;;;;;;;72.70;41.78;;;;;;;;;;5074088;28;20040;-80
2022/01/04 02:49:22;;;;;;;73.90;41.55;;;;;;;;;;5074152;28;20027;-78
2022/01/04 02:51:49;;;;;;;66.65;40.28;;;;;;;;;;5074151;28;20032;-79
2022/01/04 02:54:15;;;;;;;50.10;35.92;;;;;;;;;;5073937;28;20024;-76
2022/01/04 02:56:41;;;;;;;51.53;38.63;;;;;;;;;;5074055;28;20028;-81
2022/01/04 02:59:07;;;;;;;46.33;31.95;;;;;;;;;;5073923;28;20484;-78
2022/01/04 03:01:35;;;;;;;47.28;31.50;;;;;;;;;;5073903;28;20016;-78
2022/01/04 03:04:01;;;;;;;53.10;36.10;;;;;;;;;;5073802;28;20032;-79
2022/01/04 03:06:30;;;;;;;48.90;35.10;;;;;;;;;;5073907;28;20028;-78
2022/01/04 03:08:56;;;;;;;49.38;33.38;;;;;;;;;;5073621;28;20081;-79
2022/01/04 03:11:22;;;;;;;47.78;31.92;;;;;;;;;;5073777;28;20047;-83
2022/01/04 03:13:48;;;;;;;50.28;33.78;;;;;;;;;;5073803;28;20028;-78
2022/01/04 03:16:15;;;;;;;47.20;32.17;;;;;;;;;;5073693;28;20035;-79
2022/01/04 03:19:02;;;;;;;45.78;30.05;;;;;;;;;;5073767;28;20522;-82
2022/01/04 03:21:29;;;;;;;48.13;31.90;;;;;;;;;;5073261;28;20044;-77
2022/01/04 03:23:58;;;;;;;43.13;28.60;;;;;;;;;;5073654;28;20032;-83
2022/01/04 03:26:24;;;;;;;48.47;31.67;;;;;;;;;;5073573;28;20057;-81
2022/01/04 03:28:50;;;;;;;46.35;30.77;;;;;;;;;;5072234;28;20429;-79
2022/01/04 03:31:16;;;;;;;45.58;31.83;;;;;;;;;;5073661;28;20135;-78
2022/01/04 03:33:42;;;;;;;46.83;33.45;;;;;;;;;;5072540;28;20107;-80
2022/01/04 03:36:08;;;;;;;49.25;32.10;;;;;;;;;;5073349;28;20059;-78
2022/01/04 03:38:35;;;;;;;51.88;35.42;;;;;;;;;;5072172;28;20479;-82
2022/01/04 03:41:01;;;;;;;54.92;35.33;;;;;;;;;;5073359;28;20441;-78
2022/01/04 03:43:28;;;;;;;49.55;34.47;;;;;;;;;;5073429;28;20048;-78
2022/01/04 03:45:54;;;;;;;43.47;30.90;;;;;;;;;;5073230;28;20115;-78
2022/01/04 03:48:20;;;;;;;41.47;29.02;;;;;;;;;;5073266;28;20101;-78
2022/01/04 03:50:46;;;;;;;37.55;26.90;;;;;;;;;;5073334;28;20044;-80
2022/01/04 03:53:13;;;;;;;42.13;28.25;;;;;;;;;;5073320;28;20027;-79
2022/01/04 03:55:39;;;;;;;32.67;25.58;;;;;;;;;;5073481;28;20029;-83
2022/01/04 03:58:05;;;;;;;39.17;27.25;;;;;;;;;;5073369;28;20105;-78
2022/01/04 04:00:31;;;;;;;38.58;28.23;;;;;;;;;;5073367;28;20051;-79
2022/01/04 04:03:00;;;;;;;36.03;27.67;;;;;;;;;;5073057;28;20094;-78
2022/01/04 04:05:26;;;;;;;44.28;31.80;;;;;;;;;;5072987;28;20094;-81
2022/01/04 04:07:52;;;;;;;40.70;28.38;;;;;;;;;;5073114;28;20415;-76
2022/01/04 04:10:18;;;;;;;45.47;34.20;;;;;;;;;;5073026;28;20033;-78
2022/01/04 04:12:47;;;;;;;42.42;30.20;;;;;;;;;;5073172;28;20032;-79
2022/01/04 04:15:14;;;;;;;56.30;34.65;;;;;;;;;;5073060;28;20490;-78
2022/01/04 04:17:40;;;;;;;55.25;37.08;;;;;;;;;;5073043;28;20160;-81
2022/01/04 04:20:06;;;;;;;55.03;35.42;;;;;;;;;;5072971;28;20032;-79
2022/01/04 04:22:32;;;;;;;52.17;36.35;;;;;;;;;;5073254;28;20418;-80
2022/01/04 04:24:58;;;;;;;48.92;32.13;;;;;;;;;;5072624;28;20499;-77
2022/01/04 04:27:25;;;;;;;45.95;31.65;;;;;;;;;;5072967;28;20035;-79
2022/01/04 04:29:58;;;;;;;104.40;66.13;;;;;;;;;;5072889;28;20033;-75
2022/01/04 04:32:24;;;;;;;64.40;44.95;;;;;;;;;;5072663;28;20029;-82
2022/01/04 04:34:50;;;;;;;45.55;31.27;;;;;;;;;;5072999;28;20025;-78
2022/01/04 04:37:17;;;;;;;47.78;32.85;;;;;;;;;;5072791;28;20070;-81
2022/01/04 04:39:43;;;;;;;44.47;30.92;;;;;;;;;;5072788;28;20075;-75
2022/01/04 04:42:09;;;;;;;42.33;30.27;;;;;;;;;;5072903;28;20541;-74
2022/01/04 04:44:37;;;;;;;45.13;32.95;;;;;;;;;;5074808;28;20090;-79
2022/01/04 04:47:07;;;;;;;54.75;35.80;;;;;;;;;;5076355;28;20442;-78
2022/01/04 04:49:33;;;;;;;51.67;33.33;;;;;;;;;;5076413;28;20021;-76
2022/01/04 04:51:59;;;;;;;45.13;30.45;;;;;;;;;;5076353;28;20024;-76
2022/01/04 04:54:26;;;;;;;45.35;30.33;;;;;;;;;;5076334;28;20047;-74
2022/01/04 04:56:52;;;;;;;41.50;27.95;;;;;;;;;;5076203;28;20089;-75
2022/01/04 04:59:18;;;;;;;36.80;26.02;;;;;;;;;;5075854;28;20082;-80
2022/01/04 05:01:44;;;;;;;37.95;26.45;;;;;;;;;;5076181;28;20028;-80
2022/01/04 05:04:10;;;;;;;41.33;29.60;;;;;;;;;;5076386;28;20051;-80
2022/01/04 05:06:36;;;;;;;44.92;30.55;;;;;;;;;;5074459;28;20058;-79
2022/01/04 05:09:03;;;;;;;40.25;29.35;;;;;;;;;;5076028;28;20033;-78
2022/01/04 05:11:29;;;;;;;43.70;32.10;;;;;;;;;;5075981;28;20103;-76
2022/01/04 05:13:59;;;;;;;36.60;28.63;;;;;;;;;;5075732;28;20032;-77
2022/01/04 05:16:27;;;;;;;42.63;30.85;;;;;;;;;;5075995;28;20024;-78
2022/01/04 05:18:54;;;;;;;39.10;26.95;;;;;;;;;;5075930;28;20029;-73
2022/01/04 05:21:20;;;;;;;63.10;38.58;;;;;;;;;;5075884;28;20552;-78
2022/01/04 05:23:46;;;;;;;111.38;63.00;;;;;;;;;;5075752;28;20024;-77
2022/01/04 05:26:12;;;;;;;43.83;32.38;;;;;;;;;;5075433;28;20047;-74
2022/01/04 05:28:42;;;;;;;43.05;29.80;;;;;;;;;;5075777;28;20460;-76
2022/01/04 05:31:08;;;;;;;38.88;27.77;;;;;;;;;;5075790;28;20031;-78
2022/01/04 05:33:37;;;;;;;55.40;37.50;;;;;;;;;;5075200;28;20024;-80
2022/01/04 05:36:03;;;;;;;48.15;31.40;;;;;;;;;;5075413;28;20463;-77
2022/01/04 05:38:29;;;;;;;42.15;29.55;;;;;;;;;;5075468;28;20036;-75
2022/01/04 05:40:55;;;;;;;49.30;34.83;;;;;;;;;;5075295;28;20032;-76
2022/01/04 05:43:21;;;;;;;78.47;46.80;;;;;;;;;;5075146;28;20357;-77
2022/01/04 05:45:48;;;;;;;83.72;49.20;;;;;;;;;;5075081;28;20040;-75
2022/01/04 05:48:14;;;;;;;74.32;46.88;;;;;;;;;;5075179;28;20079;-76
2022/01/04 05:50:42;;;;;;;52.53;34.83;;;;;;;;;;5074876;28;20038;-74
2022/01/04 05:53:08;;;;;;;74.38;45.45;;;;;;;;;;5075131;28;20093;-77
2022/01/04 05:55:36;;;;;;;65.82;43.95;;;;;;;;;;5073543;28;20111;-79
2022/01/04 05:58:03;;;;;;;74.10;46.45;;;;;;;;;;5073711;28;20028;-76
2022/01/04 06:00:31;;;;;;;62.67;41.00;;;;;;;;;;5074852;28;20035;-81
2022/01/04 06:03:01;;;;;;;61.03;40.15;;;;;;;;;;5074430;28;20044;-78
2022/01/04 06:05:27;;;;;;;75.95;46.63;;;;;;;;;;5074540;28;20040;-79
2022/01/04 06:07:54;;;;;;;53.33;34.80;;;;;;;;;;5074765;28;20472;-74
2022/01/04 06:10:20;;;;;;;64.45;42.03;;;;;;;;;;5074784;28;20029;-77
2022/01/04 06:15:17;;;;;;;74.95;46.03;;;;;;;;;;5074655;28;20037;-78
2022/01/04 06:17:49;;;;;;;74.25;46.47;;;;;;;;;;5074582;28;20099;-77
2022/01/04 06:20:21;;;;;;;49.08;33.50;;;;;;;;;;5074660;28;20158;-77
2022/01/04 06:22:47;;;;;;;42.97;32.38;;;;;;;;;;5074164;28;20025;-75
2022/01/04 06:25:14;;;;;;;58.30;38.45;;;;;;;;;;5072669;28;20052;-79
2022/01/04 06:27:44;;;;;;;53.85;38.65;;;;;;;;;;5073282;28;20033;-75
2022/01/04 06:30:11;;;;;;;41.80;29.88;;;;;;;;;;5074172;28;20032;-76
2022/01/04 06:32:37;;;;;;;35.45;27.13;;;;;;;;;;5074090;28;20100;-68
2022/01/04 06:35:04;;;;;;;51.97;33.45;;;;;;;;;;5072935;28;20407;-78
2022/01/04 06:37:32;;;;;;;48.80;34.08;;;;;;;;;;5070374;28;20029;-75
2022/01/04 06:39:58;;;;;;;43.55;29.98;;;;;;;;;;5069607;28;20043;-77
2022/01/04 06:42:24;;;;;;;35.95;25.27;;;;;;;;;;5070895;28;20020;-76
2022/01/04 06:44:51;;;;;;;41.90;28.70;;;;;;;;;;5069983;28;20051;-76
2022/01/04 06:47:17;;;;;;;41.53;28.25;;;;;;;;;;5069916;28;20040;-77
2022/01/04 06:49:43;;;;;;;45.45;30.13;;;;;;;;;;5070931;28;20392;-76
2022/01/04 06:52:09;;;;;;;42.03;28.27;;;;;;;;;;5071678;28;20028;-78
2022/01/04 06:54:35;;;;;;;47.15;31.80;;;;;;;;;;5069803;28;20551;-78
2022/01/04 06:57:02;;;;;;;31.05;22.27;;;;;;;;;;5071289;28;20030;-75
2022/01/04 06:59:28;;;;;;;44.17;29.20;;;;;;;;;;5071513;28;20085;-75
2022/01/04 07:01:57;;;;;;;42.03;27.90;;;;;;;;;;5071340;28;20035;-75
2022/01/04 07:04:23;;;;;;;46.10;32.42;;;;;;;;;;5071189;28;20112;-77
2022/01/04 07:06:49;;;;;;;48.40;33.80;;;;;;;;;;5071120;28;20485;-75
2022/01/04 07:09:15;;;;;;;46.67;32.38;;;;;;;;;;5071534;28;20024;-76
2022/01/04 07:11:44;;;;;;;84.78;58.53;;;;;;;;;;5071483;28;20105;-74
2022/01/04 07:14:10;;;;;;;78.45;56.20;;;;;;;;;;5070562;28;20031;-73
2022/01/04 07:16:36;;;;;;;78.75;59.65;;;;;;;;;;5070535;28;20029;-74
2022/01/04 07:19:02;;;;;;;94.82;68.28;;;;;;;;;;5070427;28;20035;-72
2022/01/04 07:21:31;;;;;;;156.70;104.68;;;;;;;;;;5070545;28;20055;-75
2022/01/04 07:23:57;;;;;;;176.43;119.40;;;;;;;;;;5070224;28;20108;-73
2022/01/04 07:26:24;;;;;;;201.25;129.05;;;;;;;;;;5067730;28;20097;-73
2022/01/04 07:28:51;;;;;;;161.10;107.18;;;;;;;;;;5070575;28;20020;-72
2022/01/04 07:31:18;;;;;;;135.25;94.18;;;;;;;;;;5070761;28;20028;-78
2022/01/04 07:33:45;;;;;;;101.32;71.65;;;;;;;;;;5071282;28;20387;-76
2022/01/04 07:36:12;;;;;;;90.30;62.30;;;;;;;;;;5070595;28;20585;-75
2022/01/04 07:38:39;;;;;;;82.72;56.72;;;;;;;;;;5070490;28;20093;-76
2022/01/04 07:41:05;;;;;;;70.72;55.42;;;;;;;;;;5070464;28;20028;-76
2022/01/04 07:43:32;;;;;;;63.63;45.97;;;;;;;;;;5070799;28;20032;-79
2022/01/04 07:45:58;;;;;;;58.03;41.58;;;;;;;;;;5070017;28;20123;-76
2022/01/04 07:48:24;;;;;;;59.20;42.90;;;;;;;;;;5071081;28;20463;-75
2022/01/04 07:50:55;;;;;;;60.50;43.45;;;;;;;;;;5070606;28;20094;-77
2022/01/04 07:53:22;;;;;;;66.25;49.40;;;;;;;;;;5070629;28;20078;-79
2022/01/04 07:55:48;;;;;;;80.03;61.08;;;;;;;;;;5070862;28;20471;-78
2022/01/04 07:58:15;;;;;;;86.22;67.43;;;;;;;;;;5070720;28;20032;-79
2022/01/04 08:00:41;;;;;;;107.88;76.28;;;;;;;;;;5069388;28;20048;-74
2022/01/04 08:03:10;;;;;;;100.78;70.82;;;;;;;;;;5070490;28;20032;-75
2022/01/04 08:05:37;;;;;;;149.05;104.38;;;;;;;;;;5070191;28;20097;-75
2022/01/04 08:08:03;;;;;;;135.68;97.93;;;;;;;;;;5070412;28;20028;-77
2022/01/04 08:10:32;;;;;;;137.50;99.63;;;;;;;;;;5070680;28;20036;-77
2022/01/04 08:12:58;;;;;;;131.10;92.43;;;;;;;;;;5070656;28;20103;-76
2022/01/04 08:15:25;;;;;;;98.88;70.88;;;;;;;;;;5070766;28;20484;-79
2022/01/04 08:17:52;;;;;;;77.22;53.33;;;;;;;;;;5071451;28;20036;-77
2022/01/04 08:20:18;;;;;;;86.22;64.10;;;;;;;;;;5074043;28;20025;-74
2022/01/04 08:22:47;;;;;;;87.00;60.05;;;;;;;;;;5074942;28;20036;-78
2022/01/04 08:25:13;;;;;;;94.07;69.18;;;;;;;;;;5074246;28;20108;-77
2022/01/04 08:27:39;;;;;;;77.07;56.72;;;;;;;;;;5072713;28;20613;-76
2022/01/04 08:30:09;;;;;;;57.55;43.55;;;;;;;;;;5074244;28;20021;-78
2022/01/04 08:32:37;;;;;;;52.17;34.90;;;;;;;;;;5074497;28;20046;-74
2022/01/04 08:35:03;;;;;;;48.17;34.83;;;;;;;;;;5074710;28;20105;-76
2022/01/04 08:37:30;;;;;;;51.38;38.00;;;;;;;;;;5072354;28;20021;-76
2022/01/04 08:39:56;;;;;;;43.95;33.35;;;;;;;;;;5074120;28;20067;-80
2022/01/04 08:42:23;;;;;;;38.50;29.67;;;;;;;;;;5072655;28;20098;-74
2022/01/04 08:44:52;;;;;;;40.28;30.35;;;;;;;;;;5074113;28;20033;-76
2022/01/04 08:47:18;;;;;;;41.40;31.13;;;;;;;;;;5074089;28;20032;-78
2022/01/04 08:49:44;;;;;;;44.80;33.05;;;;;;;;;;5074060;28;20111;-81
2022/01/04 08:52:10;;;;;;;41.15;30.63;;;;;;;;;;5074083;28;20024;-77
2022/01/04 08:54:37;;;;;;;42.53;30.05;;;;;;;;;;5074054;28;20469;-79
2022/01/04 08:57:04;;;;;;;43.00;28.90;;;;;;;;;;5076027;28;20078;-80
2022/01/04 08:59:33;;;;;;;42.00;28.70;;;;;;;;;;5075650;28;20382;-79
2022/01/04 09:02:00;;;;;;;39.30;28.20;;;;;;;;;;5074543;28;20035;-80
2022/01/04 09:04:26;;;;;;;37.88;26.77;;;;;;;;;;5074328;28;20394;-78
2022/01/04 09:06:52;;;;;;;36.55;27.05;;;;;;;;;;5074107;28;20033;-82
2022/01/04 09:09:19;;;;;;;37.00;27.20;;;;;;;;;;5073471;28;20028;-80
2022/01/04 09:11:45;;;;;;;38.03;28.40;;;;;;;;;;5073420;28;20058;-76
2022/01/04 09:19:31;;;;;;;43.60;33.05;;;;;;;;;;5073127;28;20089;-80
2022/01/04 09:21:57;;;;;;;49.78;38.45;;;;;;;;;;5074046;28;20417;-80
2022/01/04 09:24:23;;;;;;;45.42;34.03;;;;;;;;;;5073519;28;20530;-79
2022/01/04 09:26:50;;;;;;;48.97;33.88;;;;;;;;;;5073404;28;20094;-77
2022/01/04 09:29:17;;;;;;;60.75;39.10;;;;;;;;;;5073289;28;20054;-77
2022/01/04 09:31:43;;;;;;;84.25;48.30;;;;;;;;;;5071387;28;20495;-81
2022/01/04 09:34:13;;;;;;;97.00;47.42;;;;;;;;;;5071702;28;20029;-81
2022/01/04 09:36:39;;;;;;;120.55;52.00;;;;;;;;;;5073168;28;20032;-83
2022/01/04 09:39:12;;;;;;;115.63;46.00;;;;;;;;;;5072982;28;20391;-78
2022/01/04 09:41:40;;;;;;;88.28;39.35;;;;;;;;;;5072615;28;20749;-80
2022/01/04 09:44:06;;;;;;;197.57;67.05;;;;;;;;;;5073424;28;20032;-75
2022/01/04 09:46:33;;;;;;;105.82;44.03;;;;;;;;;;5072442;28;20115;-75
2022/01/04 09:49:01;;;;;;;71.05;35.45;;;;;;;;;;5072949;28;20021;-78
2022/01/04 09:51:28;;;;;;;65.03;34.20;;;;;;;;;;5072595;28;20028;-76
2022/01/04 09:53:54;;;;;;;46.85;27.80;;;;;;;;;;5072828;28;20031;-79
2022/01/04 09:56:21;;;;;;;61.15;31.20;;;;;;;;;;5073111;28;20028;-78
2022/01/04 09:58:47;;;;;;;47.72;26.77;;;;;;;;;;5072853;28;20033;-79
2022/01/04 10:01:19;;;;;;;80.72;37.15;;;;;;;;;;5072944;28;20033;-76
2022/01/04 10:03:50;;;;;;;100.07;41.42;;;;;;;;;;5072435;28;20028;-74
2022/01/04 10:06:17;;;;;;;56.15;30.65;;;;;;;;;;5071477;28;20056;-77
2022/01/04 10:09:06;;;;;;;45.33;26.92;;;;;;;;;;5072155;28;20111;-77
2022/01/04 10:11:32;;;;;;;36.63;26.27;;;;;;;;;;5072015;28;20133;-76
2022/01/04 10:14:02;;;;;;;57.78;31.83;;;;;;;;;;5071760;28;20081;-75
2022/01/04 10:16:28;;;;;;;51.72;28.98;;;;;;;;;;5071632;28;20060;-77
2022/01/04 10:18:54;;;;;;;49.42;27.40;;;;;;;;;;5069949;28;20032;-76
2022/01/04 10:21:21;;;;;;;48.35;27.13;;;;;;;;;;5071945;28;20030;-76
2022/01/04 10:23:49;;;;;;;53.67;28.92;;;;;;;;;;5070685;28;20102;-73
2022/01/04 10:26:16;;;;;;;56.08;30.10;;;;;;;;;;5071934;28;20131;-74
2022/01/04 10:28:44;;;;;;;63.97;32.25;;;;;;;;;;5070337;28;20029;-77
2022/01/04 10:31:11;;;;;;;56.88;27.55;;;;;;;;;;5070913;28;20494;-79
2022/01/04 10:33:38;;;;;;;37.47;22.40;;;;;;;;;;5071639;28;20078;-75
2022/01/04 10:36:11;;;;;;;197.85;67.30;;;;;;;;;;5071900;28;20028;-77
2022/01/04 10:38:39;;;;;;;172.15;64.57;;;;;;;;;;5071784;28;20400;-74
2022/01/04 10:41:12;;;;;;;79.53;33.33;;;;;;;;;;5071289;28;20036;-72
2022/01/04 10:43:40;;;;;;;42.75;21.48;;;;;;;;;;5071575;28;20052;-75
2022/01/04 10:46:06;;;;;;;33.10;19.55;;;;;;;;;;5071249;28;20115;-77
2022/01/04 10:48:39;;;;;;;29.65;18.08;;;;;;;;;;5071212;28;20122;-78
2022/01/04 10:51:14;;;;;;;29.48;19.98;;;;;;;;;;5071888;28;20070;-74
2022/01/04 10:53:40;;;;;;;;;;;;;;;;;;5071686;28;20032;-76
2022/01/04 10:56:07;;;;;;;28.50;20.58;;;;;;;;;;5070363;28;19911;-75
2022/01/04 10:58:35;;;;;;;30.27;21.42;;;;;;;;;;5070308;28;20066;-74
2022/01/04 11:01:05;;;;;;;33.45;21.40;;;;;;;;;;5071229;28;20054;-75
2022/01/04 11:03:32;;;;;;;31.05;20.15;;;;;;;;;;5069741;28;20037;-74
2022/01/04 11:06:00;;;;;;;37.00;24.17;;;;;;;;;;5070788;28;20040;-75
2022/01/04 11:08:28;;;;;;;34.78;22.90;;;;;;;;;;5070848;28;20037;-76
2022/01/04 11:10:55;;;;;;;35.17;22.88;;;;;;;;;;5071227;28;20029;-77
2022/01/04 11:13:24;;;;;;;37.03;24.15;;;;;;;;;;5071274;28;20061;-76
2022/01/04 11:15:50;;;;;;;42.80;28.42;;;;;;;;;;5071103;28;20033;-76
2022/01/04 11:18:17;;;;;;;39.45;27.02;;;;;;;;;;5071155;28;20513;-75
2022/01/04 11:20:43;;;;;;;36.58;25.50;;;;;;;;;;5071035;28;20028;-77
2022/01/04 11:23:10;;;;;;;31.02;22.17;;;;;;;;;;5071214;28;20078;-75
2022/01/04 11:25:39;;;;;;;32.33;23.08;;;;;;;;;;5070696;28;20084;-75
2022/01/04 11:28:07;;;;;;;32.22;21.23;;;;;;;;;;5071063;28;20495;-73
2022/01/04 11:30:39;;;;;;;23.00;19.52;;;;;;;;;;5070850;28;20028;-75
2022/01/04 11:33:20;;;;;;;22.27;17.00;;;;;;;;;;5070969;28;20028;-74
2022/01/04 11:35:47;;;;;;;18.83;14.57;;;;;;;;;;5071110;28;20017;-77
2022/01/04 11:38:13;;;;;;;24.83;18.90;;;;;;;;;;5070773;28;20029;-74
2022/01/04 11:40:41;;;;;;;25.27;19.15;;;;;;;;;;5070810;28;20034;-74
2022/01/04 11:43:25;;;;;;;20.63;14.85;;;;;;;;;;5070698;28;20028;-77
2022/01/04 11:45:53;;;;;;;22.13;15.85;;;;;;;;;;5052888;28;20096;-74
2022/01/04 11:48:40;;;;;;;22.42;16.42;;;;;;;;;;5070627;28;20106;-75
2022/01/04 11:51:08;;;;;;;24.52;18.67;;;;;;;;;;5069128;28;20036;-75
2022/01/04 11:53:35;;;;;;;25.77;20.08;;;;;;;;;;5066901;28;20384;-75
2022/01/04 11:56:06;;;;;;;25.50;19.42;;;;;;;;;;5068817;28;20019;-75
2022/01/04 11:58:51;;;;;;;27.08;19.17;;;;;;;;;;5069957;28;20383;-75
2022/01/04 12:01:20;;;;;;;;;;;;;;;;;;5066428;28;20758;-76
2022/01/04 12:03:47;;;;;;;25.95;17.13;;;;;;;;;;5069354;28;19908;-77
2022/01/04 12:06:14;;;;;;;24.20;16.13;;;;;;;;;;5067336;28;20043;-77
2022/01/04 12:08:45;;;;;;;21.90;16.60;;;;;;;;;;5069858;28;20547;-73
2022/01/04 12:11:23;;;;;;;16.95;13.10;;;;;;;;;;5069151;28;20017;-76
2022/01/04 12:14:00;;;;;;;16.17;11.75;;;;;;;;;;5069898;28;20032;-77
2022/01/04 12:16:30;;;;;;;13.35;11.27;;;;;;;;;;5069858;28;20021;-77
2022/01/04 12:18:57;;;;;;;15.98;12.25;;;;;;;;;;5066903;28;20033;-79
2022/01/04 12:21:29;;;;;;;18.00;12.75;;;;;;;;;;5070337;28;20063;-76
2022/01/04 12:23:57;;;;;;;15.95;12.02;;;;;;;;;;5064956;28;20039;-79
2022/01/04 12:26:25;;;;;;;18.08;13.20;;;;;;;;;;5069524;28;20049;-79
2022/01/04 12:28:58;;;;;;;18.60;14.90;;;;;;;;;;5068281;28;20031;-77
2022/01/04 12:31:25;;;;;;;22.98;15.45;;;;;;;;;;5068105;28;20090;-77
2022/01/04 12:33:52;;;;;;;20.30;16.25;;;;;;;;;;5070044;28;20039;-75
2022/01/04 12:36:27;;;;;;;21.88;16.73;;;;;;;;;;5070217;28;20095;-75
2022/01/04 12:38:58;;;;;;;26.38;18.80;;;;;;;;;;5071239;28;20383;-74
2022/01/04 12:41:25;;;;;;;43.30;26.55;;;;;;;;;;5070367;28;20028;-75
2022/01/04 12:43:52;;;;;;;28.02;19.27;;;;;;;;;;5071341;28;20021;-74
2022/01/04 12:46:31;;;;;;;31.58;22.73;;;;;;;;;;5070821;28;20064;-76
2022/01/04 12:49:02;;;;;;;23.65;17.60;;;;;;;;;;5071587;28;20399;-78
2022/01/04 12:51:30;;;;;;;26.83;19.70;;;;;;;;;;5070897;28;20032;-78
2022/01/04 12:54:08;;;;;;;27.10;21.25;;;;;;;;;;5071073;28;20025;-77
2022/01/04 12:56:44;;;;;;;30.65;22.20;;;;;;;;;;5071484;28;20344;-78
2022/01/04 12:59:18;;;;;;;28.55;20.80;;;;;;;;;;5070956;28;20055;-76
2022/01/04 13:01:48;;;;;;;35.92;25.33;;;;;;;;;;5070882;28;20032;-77
2022/01/04 13:04:32;;;;;;;35.75;25.65;;;;;;;;;;5070678;28;20551;-76
2022/01/04 13:06:58;;;;;;;;;;;;;;;;;;5073877;28;20067;-74
2022/01/04 13:09:25;;;;;;;27.55;21.67;;;;;;;;;;5074730;28;19915;-75
2022/01/04 13:11:53;;;;;;;28.52;20.52;;;;;;;;;;5074980;28;20047;-77
2022/01/04 13:14:21;;;;;;;28.55;21.85;;;;;;;;;;5074667;28;20107;-78
2022/01/04 13:16:48;;;;;;;36.30;26.60;;;;;;;;;;5074732;28;20103;-75
2022/01/04 13:19:15;;;;;;;28.63;23.02;;;;;;;;;;5074222;28;20025;-75
2022/01/04 13:21:42;;;;;;;24.98;20.08;;;;;;;;;;5074371;28;20028;-77
2022/01/04 13:24:09;;;;;;;27.05;21.60;;;;;;;;;;5073014;28;20532;-79
2022/01/04 13:26:35;;;;;;;20.98;17.20;;;;;;;;;;5073868;28;20100;-82
2022/01/04 13:29:06;;;;;;;22.38;16.40;;;;;;;;;;5074450;28;20029;-76
2022/01/04 13:31:32;;;;;;;25.50;17.95;;;;;;;;;;5073348;28;20029;-79
2022/01/04 13:33:58;;;;;;;23.55;16.75;;;;;;;;;;5074290;28;20020;-76
2022/01/04 13:36:25;;;;;;;19.50;15.02;;;;;;;;;;5072310;28;20373;-77
2022/01/04 13:38:57;;;;;;;18.40;14.40;;;;;;;;;;5073030;28;20028;-78
2022/01/04 13:41:42;;;;;;;21.77;14.85;;;;;;;;;;5074249;28;20088;-76
2022/01/04 13:44:11;;;;;;;22.90;16.58;;;;;;;;;;5074405;28;20048;-78
2022/01/04 13:46:37;;;;;;;23.13;16.13;;;;;;;;;;5073612;28;20086;-76
2022/01/04 13:49:04;;;;;;;19.77;14.73;;;;;;;;;;5073852;28;20036;-77
2022/01/04 13:51:34;;;;;;;24.75;16.80;;;;;;;;;;5073373;28;20094;-77
2022/01/04 13:54:08;;;;;;;22.33;18.08;;;;;;;;;;5073491;28;20028;-75
2022/01/04 13:56:34;;;;;;;23.52;18.27;;;;;;;;;;5074080;28;20426;-75
2022/01/04 13:59:00;;;;;;;20.80;17.80;;;;;;;;;;5073932;28;20032;-75
2022/01/04 14:01:32;;;;;;;22.55;16.80;;;;;;;;;;5072894;28;20028;-77
2022/01/04 14:03:59;;;;;;;22.88;16.65;;;;;;;;;;5072869;28;20635;-77
2022/01/04 14:06:44;;;;;;;25.55;18.48;;;;;;;;;;5072005;28;20064;-76
2022/01/04 14:09:10;;;;;;;28.92;21.48;;;;;;;;;;5072560;28;20448;-76
2022/01/04 14:11:38;;;;;;;44.97;32.08;;;;;;;;;;5072637;28;20028;-79
2022/01/04 14:14:09;;;;;;;61.38;45.67;;;;;;;;;;5071849;28;20507;-77
2022/01/04 14:17:04;;;;;;;41.97;31.40;;;;;;;;;;5070871;28;20074;-77
2022/01/04 14:19:30;;;;;;;;;;;;;;;;;;5064862;28;20116;-79
2022/01/04 14:21:57;;;;;;;133.10;89.43;;;;;;;;;;5072465;28;21452;-79
2022/01/04 14:24:36;;;;;;;57.58;41.38;;;;;;;;;;5069750;28;20051;-76
2022/01/04 14:27:07;;;;;;;46.67;33.55;;;;;;;;;;5063855;28;20042;-76
2022/01/04 14:29:35;;;;;;;34.45;27.38;;;;;;;;;;5072281;28;20423;-79
2022/01/04 14:32:09;;;;;;;31.10;24.25;;;;;;;;;;5071789;28;20487;-75